Time;durP1;ratioP1;P1;durP2;ratioP2;P2;SDS_P1;SDS_P2;PMS_P1;PMS_P2;Temp;Humidity;BMP_temperature;BMP_pressure;BME280_temperature;BME280_humidity;BME280_pressure;Samples;Min_cycle;Max_cycle;Signal;HPM_P1;HPM_P2
2023/03/31 09:13:55;;;;;;;2.40;1.67;;;13.30;99.90;;;;;;5122902;27;20388;-58
2023/03/31 09:16:26;;;;;;;5.60;1.83;;;13.40;99.90;;;;;;5124924;27;20179;-58
2023/03/31 09:18:59;;;;;;;4.13;1.70;;;13.50;99.90;;;;;;5119044;27;20201;-58
2023/03/31 09:21:30;;;;;;;2.10;1.50;;;13.60;99.90;;;;;;5116208;27;20304;-58
2023/03/31 09:24:03;;;;;;;2.80;1.90;;;13.80;99.90;;;;;;5128583;27;20188;-58
2023/03/31 09:26:38;;;;;;;2.30;1.67;;;14.10;99.90;;;;;;5122758;27;20241;-58
2023/03/31 09:29:17;;;;;;;2.00;1.80;;;14.30;99.90;;;;;;5112963;27;20201;-60
2023/03/31 09:31:46;;;;;;;3.13;1.70;;;14.40;99.90;;;;;;5113450;28;20237;-57
2023/03/31 09:34:16;;;;;;;1.73;1.23;;;14.50;99.90;;;;;;5116738;28;20202;-58
2023/03/31 09:36:43;;;;;;;2.67;1.50;;;14.50;99.90;;;;;;5116207;27;20460;-57
2023/03/31 09:39:14;;;;;;;4.50;1.67;;;14.50;99.90;;;;;;5118418;27;20584;-59
2023/03/31 09:41:44;;;;;;;4.23;2.07;;;14.50;99.90;;;;;;5152937;27;20203;-59
2023/03/31 09:44:24;;;;;;;3.87;1.97;;;14.60;99.90;;;;;;5119449;27;20206;-59
2023/03/31 09:46:53;;;;;;;3.57;1.40;;;14.60;99.90;;;;;;5109038;27;20202;-59
2023/03/31 09:49:22;;;;;;;2.70;1.67;;;14.60;99.90;;;;;;5119989;27;20216;-59
2023/03/31 09:51:57;;;;;;;2.73;1.60;;;14.60;99.90;;;;;;5120778;28;20210;-59
2023/03/31 09:54:29;;;;;;;2.50;1.60;;;14.60;99.90;;;;;;5116228;28;20196;-59
2023/03/31 09:56:57;;;;;;;1.57;1.40;;;14.60;99.90;;;;;;5121564;28;20642;-59
2023/03/31 09:59:33;;;;;;;2.97;1.40;;;14.60;99.90;;;;;;5115541;27;20203;-59
2023/03/31 10:02:05;;;;;;;5.40;1.97;;;14.60;99.90;;;;;;5115694;27;20188;-59
2023/03/31 10:04:34;;;;;;;2.97;1.43;;;14.60;99.90;;;;;;5113895;27;20226;-59
2023/03/31 10:07:04;;;;;;;4.13;2.00;;;14.60;99.90;;;;;;5121273;27;20267;-59
2023/03/31 10:09:33;;;;;;;2.70;1.80;;;14.60;99.90;;;;;;5109976;28;20206;-59
2023/03/31 10:12:05;;;;;;;1.50;1.40;;;14.60;99.90;;;;;;5120346;28;20792;-59
2023/03/31 10:14:40;;;;;;;3.27;2.00;;;14.60;99.90;;;;;;5114636;27;20186;-59
2023/03/31 10:17:14;;;;;;;5.20;1.70;;;14.60;99.90;;;;;;5108376;27;20563;-59
2023/03/31 10:19:48;;;;;;;2.23;1.33;;;14.60;99.90;;;;;;5122546;28;20201;-59
2023/03/31 10:22:26;;;;;;;1.73;1.40;;;14.60;99.90;;;;;;5121298;28;20686;-59
2023/03/31 10:24:53;;;;;;;1.57;1.33;;;14.60;99.90;;;;;;5096256;28;20183;-59
2023/03/31 10:27:24;;;;;;;1.20;1.10;;;14.60;99.90;;;;;;5102737;28;20731;-59
2023/03/31 10:29:54;;;;;;;1.40;1.30;;;14.60;99.90;;;;;;5097457;28;20589;-59
2023/03/31 10:32:27;;;;;;;1.27;1.17;;;14.60;99.90;;;;;;5104053;28;20551;-59
2023/03/31 10:34:55;;;;;;;1.80;1.10;;;14.60;99.90;;;;;;5100575;27;20195;-59
2023/03/31 10:37:25;;;;;;;2.03;1.10;;;14.60;99.90;;;;;;5110031;28;20191;-59
2023/03/31 10:39:57;;;;;;;2.70;1.57;;;14.60;99.90;;;;;;5102868;28;20685;-59
2023/03/31 10:42:26;;;;;;;1.17;1.00;;;14.60;99.90;;;;;;5119887;27;20236;-59
2023/03/31 10:45:12;;;;;;;4.73;1.90;;;14.60;99.90;;;;;;5106359;28;20202;-59
2023/03/31 10:47:40;;;;;;;2.23;1.53;;;14.60;99.90;;;;;;5108960;28;20203;-59
2023/03/31 10:50:15;;;;;;;4.13;1.40;;;14.60;99.90;;;;;;5109337;28;20195;-59
2023/03/31 10:52:46;;;;;;;5.67;2.37;;;14.60;99.90;;;;;;5101892;27;20219;-59
2023/03/31 10:55:14;;;;;;;4.93;1.90;;;14.70;99.90;;;;;;5111741;28;20215;-59
2023/03/31 10:57:48;;;;;;;5.30;1.70;;;14.60;99.90;;;;;;5102672;27;20203;-59
2023/03/31 11:00:27;;;;;;;3.57;1.80;;;14.60;99.90;;;;;;5108810;28;20210;-59
2023/03/31 11:03:30;;;;;;;2.90;1.57;;;14.60;99.90;;;;;;5109415;28;20192;-59
2023/03/31 11:06:05;;;;;;;1.60;1.50;;;14.70;99.90;;;;;;5108414;28;20190;-59
2023/03/31 11:08:50;;;;;;;1.50;1.40;;;14.70;99.90;;;;;;5105167;28;20203;-59
2023/03/31 11:11:34;;;;;;;4.40;1.53;;;14.70;99.90;;;;;;5111348;28;20235;-59
2023/03/31 11:14:08;;;;;;;4.07;2.20;;;14.70;99.90;;;;;;5104583;28;20689;-59
2023/03/31 11:16:44;;;;;;;2.67;1.80;;;14.80;99.90;;;;;;5094969;28;20197;-59
2023/03/31 11:19:24;;;;;;;2.87;1.50;;;14.80;99.90;;;;;;5111584;28;20199;-59
2023/03/31 11:22:01;;;;;;;2.63;1.40;;;14.80;99.90;;;;;;5110315;27;20195;-59
2023/03/31 11:24:48;;;;;;;3.03;1.70;;;14.90;99.90;;;;;;5124682;27;20567;-59
2023/03/31 11:27:35;;;;;;;2.63;1.33;;;14.90;99.90;;;;;;5107129;28;20214;-59
2023/03/31 11:30:10;;;;;;;2.40;1.73;;;15.00;99.90;;;;;;5127680;27;20204;-59
2023/03/31 11:33:05;;;;;;;4.37;1.20;;;15.20;99.90;;;;;;5099049;28;20686;-59
2023/03/31 11:35:53;;;;;;;1.27;1.00;;;15.30;99.90;;;;;;5108826;28;20207;-59
2023/03/31 11:38:43;;;;;;;4.53;1.50;;;15.50;99.90;;;;;;5110464;28;20207;-59
2023/03/31 11:41:15;;;;;;;2.00;1.57;;;15.60;99.90;;;;;;5110837;27;20187;-59
2023/03/31 11:43:46;;;;;;;3.93;1.50;;;15.60;99.90;;;;;;5109995;28;20204;-59
2023/03/31 11:46:17;;;;;;;0.90;0.90;;;15.70;99.90;;;;;;5109923;28;20257;-59
2023/03/31 11:48:51;;;;;;;3.03;1.43;;;15.90;99.90;;;;;;5104842;27;20300;-59
2023/03/31 11:51:24;;;;;;;4.57;1.93;;;16.00;99.90;;;;;;5107242;27;20286;-59
2023/03/31 11:53:53;;;;;;;3.50;1.70;;;16.10;99.90;;;;;;5105149;28;20294;-59
2023/03/31 11:56:21;;;;;;;2.33;1.30;;;16.30;99.90;;;;;;5098166;28;20211;-59
2023/03/31 11:58:54;;;;;;;1.73;1.40;;;16.50;99.90;;;;;;5109191;28;20532;-59
2023/03/31 12:01:25;;;;;;;2.40;1.30;;;16.70;99.90;;;;;;5103341;28;20197;-59
2023/03/31 12:04:01;;;;;;;1.60;1.00;;;16.90;99.90;;;;;;5095119;28;20220;-60
2023/03/31 12:06:31;;;;;;;1.77;1.23;;;17.00;99.90;;;;;;5105950;27;20659;-61
2023/03/31 12:09:15;;;;;;;3.07;1.20;;;17.10;99.50;;;;;;5099345;28;20197;-60
2023/03/31 12:11:48;;;;;;;2.67;1.20;;;17.20;99.30;;;;;;5110586;28;20713;-60
2023/03/31 12:14:25;;;;;;;1.63;1.20;;;17.30;98.90;;;;;;5107723;27;20198;-61
2023/03/31 12:16:55;;;;;;;3.10;1.90;;;17.30;98.70;;;;;;5098083;27;20241;-60
2023/03/31 12:19:28;;;;;;;3.77;1.53;;;17.30;98.00;;;;;;5105756;27;20537;-60
2023/03/31 12:22:00;;;;;;;2.40;1.30;;;17.20;97.60;;;;;;5104703;28;20210;-60
2023/03/31 12:24:28;;;;;;;3.10;1.20;;;17.00;97.60;;;;;;5106051;28;20196;-60
2023/03/31 12:27:05;;;;;;;1.17;1.00;;;16.90;97.90;;;;;;5110083;28;20301;-60
2023/03/31 12:29:36;;;;;;;2.30;1.60;;;16.90;98.40;;;;;;5108346;27;20548;-60
2023/03/31 12:32:10;;;;;;;1.97;1.30;;;16.90;98.10;;;;;;5096421;27;20219;-60
2023/03/31 12:34:44;;;;;;;1.97;1.27;;;16.80;98.10;;;;;;5109961;28;20196;-60
2023/03/31 12:37:48;;;;;;;3.30;1.63;;;16.70;98.10;;;;;;5110197;28;20193;-60
2023/03/31 12:40:26;;;;;;;4.97;1.80;;;16.60;98.00;;;;;;5073857;28;20326;-60
2023/03/31 12:43:06;;;;;;;1.77;1.30;;;16.50;98.10;;;;;;5102750;28;20203;-60
2023/03/31 12:45:39;;;;;;;3.00;1.53;;;16.50;98.10;;;;;;5102167;27;20246;-60
2023/03/31 12:48:39;;;;;;;3.77;1.87;;;16.50;98.20;;;;;;5110933;27;20213;-59
2023/03/31 12:51:23;;;;;;;1.97;1.33;;;16.40;98.20;;;;;;5098183;28;20191;-61
2023/03/31 12:54:10;;;;;;;2.93;1.30;;;16.40;98.30;;;;;;5105240;28;20235;-60
2023/03/31 12:57:13;;;;;;;1.87;1.00;;;16.40;98.40;;;;;;5103598;28;20270;-60
2023/03/31 12:59:42;;;;;;;1.27;1.10;;;16.30;98.50;;;;;;5112281;27;20210;-60
2023/03/31 13:02:23;;;;;;;1.17;1.07;;;16.40;98.70;;;;;;5104225;27;21659;-60
2023/03/31 13:04:52;;;;;;;1.40;1.10;;;16.40;98.80;;;;;;5112725;27;20198;-60
2023/03/31 13:07:42;;;;;;;3.00;1.63;;;16.30;98.80;;;;;;5099503;28;20208;-60
2023/03/31 13:10:30;;;;;;;1.80;1.47;;;16.30;98.90;;;;;;5110008;28;20235;-60
2023/03/31 13:13:12;;;;;;;2.73;1.63;;;16.30;99.00;;;;;;5104441;28;20264;-60
2023/03/31 13:15:40;;;;;;;2.03;1.27;;;16.40;99.00;;;;;;5107675;28;20205;-60
2023/03/31 13:18:08;;;;;;;1.70;1.27;;;16.50;99.10;;;;;;5108292;28;20276;-60
2023/03/31 13:20:37;;;;;;;2.53;1.47;;;16.60;99.00;;;;;;5107754;28;20558;-60
2023/03/31 13:23:15;;;;;;;1.53;1.40;;;16.60;99.00;;;;;;5108385;28;20192;-60
2023/03/31 13:25:48;;;;;;;1.57;1.30;;;16.60;99.00;;;;;;5106812;28;20195;-60
2023/03/31 13:28:27;;;;;;;1.40;1.30;;;16.60;98.90;;;;;;5107165;28;20639;-60
2023/03/31 13:30:59;;;;;;;2.00;1.40;;;16.60;99.00;;;;;;5105291;28;20194;-60
2023/03/31 13:33:42;;;;;;;1.43;1.30;;;16.50;99.30;;;;;;5101868;28;20243;-60
2023/03/31 13:36:43;;;;;;;2.50;1.90;;;16.50;99.70;;;;;;5099369;28;20225;-61
2023/03/31 13:39:52;;;;;;;1.70;1.60;;;16.30;99.90;;;;;;5119194;27;20189;-61
2023/03/31 13:42:36;;;;;;;2.37;1.60;;;16.20;99.90;;;;;;5094244;28;20298;-62
2023/03/31 13:45:32;;;;;;;1.87;1.77;;;16.10;99.90;;;;;;5110270;28;20213;-59
2023/03/31 13:48:14;;;;;;;1.67;1.50;;;16.00;99.90;;;;;;5101615;28;20197;-59
2023/03/31 13:50:57;;;;;;;1.57;1.40;;;15.90;99.90;;;;;;5104519;28;20185;-61
2023/03/31 13:53:36;;;;;;;1.37;1.27;;;15.90;99.90;;;;;;5112770;28;20667;-60
2023/03/31 13:56:27;;;;;;;1.00;1.00;;;15.80;99.90;;;;;;5107210;28;20212;-60
2023/03/31 13:59:13;;;;;;;1.30;1.20;;;15.80;99.90;;;;;;5097576;28;20198;-60
2023/03/31 14:02:04;;;;;;;1.90;1.30;;;15.70;99.90;;;;;;5107331;28;20199;-60
2023/03/31 14:05:04;;;;;;;3.40;1.20;;;15.60;99.90;;;;;;5108167;27;20223;-60
2023/03/31 14:07:35;;;;;;;1.73;1.30;;;15.60;99.90;;;;;;5097039;27;20216;-60
2023/03/31 14:10:03;;;;;;;2.80;1.70;;;15.60;99.90;;;;;;5114530;27;20984;-60
2023/03/31 14:12:36;;;;;;;2.60;1.50;;;15.50;99.90;;;;;;5111982;28;20223;-60
2023/03/31 14:15:05;;;;;;;1.83;1.10;;;15.40;99.90;;;;;;5110002;27;20670;-60
2023/03/31 14:17:36;;;;;;;1.13;1.13;;;15.30;99.90;;;;;;5099506;28;20633;-59
2023/03/31 14:20:28;;;;;;;5.03;2.20;;;15.20;99.90;;;;;;5103191;28;20267;-60
2023/03/31 14:23:05;;;;;;;2.03;1.67;;;15.20;99.90;;;;;;5092756;28;20290;-60
2023/03/31 14:25:49;;;;;;;1.60;1.50;;;15.10;99.90;;;;;;5102469;27;20292;-60
2023/03/31 14:28:43;;;;;;;3.33;1.90;;;15.00;99.90;;;;;;5108397;28;20201;-60
2023/03/31 14:31:20;;;;;;;2.80;1.77;;;15.00;99.90;;;;;;5106393;27;20930;-61
2023/03/31 14:34:05;;;;;;;2.27;2.07;;;14.90;99.90;;;;;;5100733;28;20208;-61
2023/03/31 14:36:40;;;;;;;2.40;2.00;;;14.90;99.90;;;;;;5098321;27;20274;-61
2023/03/31 14:39:11;;;;;;;1.80;1.70;;;14.90;99.90;;;;;;5095308;27;20217;-63
2023/03/31 14:41:40;;;;;;;4.23;1.70;;;14.90;99.90;;;;;;5100821;27;20220;-61
2023/03/31 14:44:15;;;;;;;1.60;1.50;;;14.90;99.90;;;;;;5108900;28;20257;-61
2023/03/31 14:46:43;;;;;;;1.80;1.20;;;14.80;99.90;;;;;;5106824;28;20191;-60
2023/03/31 14:49:20;;;;;;;1.40;1.30;;;14.80;99.90;;;;;;5110247;27;20212;-61
2023/03/31 14:51:48;;;;;;;2.30;1.40;;;14.70;99.90;;;;;;5110394;27;20532;-61
2023/03/31 14:54:17;;;;;;;1.70;1.60;;;14.70;99.90;;;;;;5106725;28;20220;-61
2023/03/31 14:56:48;;;;;;;1.27;1.23;;;14.70;99.90;;;;;;5097713;28;21304;-61
2023/03/31 14:59:21;;;;;;;1.93;1.70;;;14.70;99.90;;;;;;5101445;27;20671;-61
2023/03/31 15:01:50;;;;;;;2.60;1.60;;;14.70;99.90;;;;;;5100566;27;20686;-61
2023/03/31 15:04:21;;;;;;;1.67;1.57;;;14.70;99.90;;;;;;5104144;28;20225;-61
2023/03/31 15:06:50;;;;;;;1.70;1.60;;;14.70;99.90;;;;;;5106644;28;20283;-61
2023/03/31 15:09:22;;;;;;;1.57;1.47;;;14.70;99.90;;;;;;5104859;27;20235;-61
2023/03/31 15:11:55;;;;;;;1.63;1.53;;;14.70;99.90;;;;;;5111406;27;20311;-61
2023/03/31 15:14:28;;;;;;;1.80;1.67;;;14.70;99.90;;;;;;5109599;28;20238;-61
2023/03/31 15:16:55;;;;;;;1.50;1.40;;;14.70;99.90;;;;;;5109033;28;20560;-61
2023/03/31 15:19:24;;;;;;;1.10;1.10;;;14.60;99.90;;;;;;5112990;28;20196;-61
2023/03/31 15:21:55;;;;;;;2.10;1.50;;;14.60;99.90;;;;;;5097241;27;20192;-61
2023/03/31 15:24:23;;;;;;;1.40;1.30;;;14.50;99.90;;;;;;5104653;27;20307;-62
2023/03/31 15:27:01;;;;;;;1.40;1.30;;;14.50;99.90;;;;;;5112341;28;20198;-65
2023/03/31 15:29:36;;;;;;;1.70;1.60;;;14.50;99.90;;;;;;5108821;28;20304;-63
2023/03/31 15:32:06;;;;;;;1.73;1.60;;;14.50;99.90;;;;;;5107682;27;20638;-63
2023/03/31 15:34:35;;;;;;;3.20;2.23;;;14.40;99.90;;;;;;5109793;28;20208;-60
2023/03/31 15:37:03;;;;;;;2.37;1.90;;;14.40;99.90;;;;;;5101639;28;20291;-61
2023/03/31 15:39:32;;;;;;;3.40;2.60;;;14.40;99.90;;;;;;5103662;28;20200;-61
2023/03/31 15:42:01;;;;;;;3.80;3.07;;;14.40;99.90;;;;;;5098680;28;20707;-61
2023/03/31 15:44:45;;;;;;;2.50;2.20;;;14.30;99.90;;;;;;5103709;28;20200;-61
2023/03/31 15:47:24;;;;;;;3.00;1.90;;;14.30;99.90;;;;;;5104106;27;20202;-59
2023/03/31 15:49:54;;;;;;;2.40;2.17;;;14.30;99.90;;;;;;5122915;27;20191;-59
2023/03/31 15:52:34;;;;;;;3.63;2.50;;;14.20;99.90;;;;;;5095762;28;20285;-59
2023/03/31 15:55:01;;;;;;;4.80;2.67;;;14.20;99.90;;;;;;5108210;28;20293;-58
2023/03/31 15:57:34;;;;;;;3.90;2.40;;;14.10;99.90;;;;;;5110655;28;20522;-58
2023/03/31 16:00:06;;;;;;;3.43;2.50;;;14.10;99.90;;;;;;5104785;28;20798;-59
2023/03/31 16:02:45;;;;;;;4.07;2.30;;;14.00;99.90;;;;;;5102323;27;20577;-59
2023/03/31 16:05:34;;;;;;;2.77;2.40;;;14.00;99.90;;;;;;5108355;28;20203;-60
2023/03/31 16:08:02;;;;;;;3.83;2.93;;;13.90;99.90;;;;;;5095444;28;20211;-59
2023/03/31 16:10:32;;;;;;;3.00;2.70;;;13.90;99.90;;;;;;5106372;27;20279;-59
2023/03/31 16:13:02;;;;;;;6.57;3.03;;;13.90;99.90;;;;;;5102041;28;20265;-59
2023/03/31 16:15:35;;;;;;;3.50;3.00;;;13.90;99.90;;;;;;5095653;28;20195;-60
2023/03/31 16:18:05;;;;;;;4.00;2.77;;;13.90;99.90;;;;;;5108216;27;20206;-59
2023/03/31 16:20:36;;;;;;;2.90;2.30;;;13.90;99.90;;;;;;5100308;28;20199;-60
2023/03/31 16:23:13;;;;;;;2.20;2.10;;;13.90;99.90;;;;;;5096685;28;20283;-61
2023/03/31 16:25:41;;;;;;;2.47;2.27;;;13.80;99.90;;;;;;5103522;28;20662;-61
2023/03/31 16:28:14;;;;;;;2.33;2.20;;;13.80;99.90;;;;;;5106523;28;20278;-61
2023/03/31 16:30:44;;;;;;;4.10;3.20;;;13.80;99.90;;;;;;5096609;28;20213;-61
2023/03/31 16:33:13;;;;;;;2.93;2.63;;;13.80;99.90;;;;;;5099171;28;20210;-61
2023/03/31 16:35:42;;;;;;;2.53;2.20;;;13.80;99.90;;;;;;5101802;28;20204;-61
2023/03/31 16:38:11;;;;;;;1.97;1.87;;;13.80;99.90;;;;;;5099835;28;20183;-61
2023/03/31 16:40:40;;;;;;;1.93;1.77;;;13.70;99.90;;;;;;5103004;27;20199;-61
2023/03/31 16:43:13;;;;;;;2.70;1.80;;;13.70;99.90;;;;;;5112292;27;20230;-61
2023/03/31 16:45:40;;;;;;;2.17;2.00;;;13.60;99.90;;;;;;5110680;27;20205;-61
2023/03/31 16:48:09;;;;;;;2.07;1.97;;;13.60;99.90;;;;;;5107860;28;20650;-61
2023/03/31 16:50:36;;;;;;;2.13;1.93;;;13.50;99.90;;;;;;5116816;27;20684;-61
2023/03/31 16:53:04;;;;;;;3.30;2.40;;;13.40;99.90;;;;;;5108164;27;20658;-61
2023/03/31 16:55:31;;;;;;;2.33;2.17;;;13.40;99.90;;;;;;5098302;28;20215;-61
2023/03/31 16:58:01;;;;;;;2.97;2.73;;;13.30;99.90;;;;;;5106657;28;20195;-61
2023/03/31 17:00:30;;;;;;;2.47;2.27;;;13.30;99.90;;;;;;5107080;28;20203;-60
2023/03/31 17:02:57;;;;;;;2.50;2.30;;;13.30;99.90;;;;;;5102213;28;20264;-61
2023/03/31 17:05:26;;;;;;;3.47;2.63;;;13.30;99.90;;;;;;5102308;28;20209;-61
2023/03/31 17:07:53;;;;;;;2.53;2.33;;;13.30;99.90;;;;;;5098695;28;20230;-61
2023/03/31 17:10:21;;;;;;;3.00;2.50;;;13.30;99.90;;;;;;5094646;28;20204;-61
2023/03/31 17:12:48;;;;;;;2.50;2.27;;;13.30;99.90;;;;;;5100817;28;20330;-61
2023/03/31 17:15:15;;;;;;;3.70;2.70;;;13.30;99.90;;;;;;5098310;28;20211;-61
2023/03/31 17:17:43;;;;;;;2.60;2.40;;;13.30;99.90;;;;;;5092120;28;20318;-61
2023/03/31 17:20:11;;;;;;;3.53;3.13;;;13.30;99.90;;;;;;5102649;28;20680;-61
2023/03/31 17:22:40;;;;;;;3.47;2.60;;;13.30;99.90;;;;;;5095101;28;20693;-61
2023/03/31 17:25:10;;;;;;;2.67;2.47;;;13.30;99.90;;;;;;5093228;28;20201;-61
2023/03/31 17:27:37;;;;;;;3.13;2.60;;;13.30;99.90;;;;;;5099259;28;20195;-60
2023/03/31 17:30:09;;;;;;;2.93;2.60;;;13.30;99.90;;;;;;5091924;28;20206;-61
2023/03/31 17:32:36;;;;;;;4.43;2.93;;;13.30;99.90;;;;;;5106172;28;20720;-61
2023/03/31 17:35:05;;;;;;;2.67;2.43;;;13.30;99.90;;;;;;5104371;28;20214;-60
2023/03/31 17:37:32;;;;;;;3.03;2.73;;;13.30;99.90;;;;;;5098105;28;20283;-61
2023/03/31 17:40:01;;;;;;;3.97;3.23;;;13.20;99.90;;;;;;5095182;28;20210;-61
2023/03/31 17:42:30;;;;;;;5.80;2.97;;;13.20;99.90;;;;;;5107187;28;20202;-61
2023/03/31 17:44:57;;;;;;;6.37;4.30;;;13.10;99.90;;;;;;5105504;27;20203;-61
2023/03/31 17:47:26;;;;;;;12.83;5.57;;;13.10;99.90;;;;;;5107750;27;20289;-61
2023/03/31 17:49:53;;;;;;;5.20;3.83;;;13.10;99.90;;;;;;5108463;27;20199;-61
2023/03/31 17:52:21;;;;;;;4.20;3.57;;;13.10;99.90;;;;;;5105859;27;20220;-61
2023/03/31 17:54:48;;;;;;;12.40;6.90;;;13.00;99.90;;;;;;5099154;28;20297;-61
2023/03/31 17:57:17;;;;;;;9.37;5.30;;;13.00;99.90;;;;;;5106002;28;20190;-60
2023/03/31 17:59:45;;;;;;;13.33;6.43;;;12.90;99.90;;;;;;5104336;27;20208;-61
2023/03/31 18:02:14;;;;;;;12.77;5.87;;;12.90;99.90;;;;;;5106363;27;20206;-61
2023/03/31 18:04:41;;;;;;;9.07;5.10;;;12.90;99.90;;;;;;5111097;28;20217;-61
2023/03/31 18:07:09;;;;;;;12.03;5.57;;;12.90;99.90;;;;;;5110656;27;20615;-61
2023/03/31 18:09:36;;;;;;;7.63;4.80;;;12.90;99.90;;;;;;5113358;28;20196;-61
2023/03/31 18:12:04;;;;;;;7.10;4.10;;;12.90;99.90;;;;;;5097652;27;20237;-61
2023/03/31 18:14:32;;;;;;;5.57;3.60;;;12.90;99.90;;;;;;5111066;27;20221;-61
2023/03/31 18:17:00;;;;;;;5.93;3.80;;;12.90;99.90;;;;;;5099080;28;20190;-61
2023/03/31 18:19:29;;;;;;;5.70;3.87;;;12.90;99.90;;;;;;5104073;27;20203;-60
2023/03/31 18:21:56;;;;;;;8.97;5.00;;;12.90;99.90;;;;;;5099905;28;20195;-61
2023/03/31 18:24:24;;;;;;;9.13;5.40;;;12.90;99.90;;;;;;5102836;28;20197;-60
2023/03/31 18:26:51;;;;;;;7.70;4.40;;;12.80;99.90;;;;;;5098603;28;20203;-60
2023/03/31 18:29:18;;;;;;;7.50;4.10;;;12.80;99.90;;;;;;5101904;28;20205;-60
2023/03/31 18:31:46;;;;;;;4.33;3.20;;;12.90;99.90;;;;;;5101620;28;20193;-60
2023/03/31 18:34:15;;;;;;;3.73;3.03;;;12.90;99.90;;;;;;5103331;28;20214;-60
2023/03/31 18:36:42;;;;;;;4.13;3.03;;;12.90;99.90;;;;;;5110875;27;20287;-60
2023/03/31 18:39:09;;;;;;;2.60;2.40;;;12.90;99.90;;;;;;5107157;27;20221;-60
2023/03/31 18:41:36;;;;;;;3.93;3.17;;;12.80;99.90;;;;;;5102186;28;20209;-61
2023/03/31 18:44:04;;;;;;;3.80;2.87;;;12.80;99.90;;;;;;5108353;28;20233;-61
2023/03/31 18:46:31;;;;;;;3.63;2.60;;;12.80;99.90;;;;;;5104518;28;20192;-60
2023/03/31 18:49:00;;;;;;;2.67;2.43;;;12.80;99.90;;;;;;5101230;28;20571;-60
2023/03/31 18:51:27;;;;;;;3.03;2.50;;;12.80;99.90;;;;;;5107618;27;20200;-60
2023/03/31 18:53:54;;;;;;;2.90;2.60;;;12.80;99.90;;;;;;5095398;27;20213;-61
2023/03/31 18:56:21;;;;;;;5.67;3.80;;;12.80;99.90;;;;;;5103581;28;20677;-61
2023/03/31 18:58:49;;;;;;;6.37;4.07;;;12.80;99.90;;;;;;5095759;28;20691;-61
2023/03/31 19:01:16;;;;;;;7.57;4.90;;;12.70;99.90;;;;;;5100299;28;20191;-61
2023/03/31 19:03:43;;;;;;;8.23;4.77;;;12.70;99.90;;;;;;5099804;28;20203;-59
2023/03/31 19:06:12;;;;;;;5.80;4.10;;;12.60;99.90;;;;;;5106178;27;20197;-59
2023/03/31 19:08:40;;;;;;;5.63;3.70;;;12.60;99.90;;;;;;5096073;28;20276;-60
2023/03/31 19:11:11;;;;;;;5.47;4.00;;;12.60;99.90;;;;;;5097747;28;20561;-60
2023/03/31 19:13:40;;;;;;;4.43;3.30;;;12.50;99.90;;;;;;5104923;28;20298;-60
2023/03/31 19:16:08;;;;;;;9.83;5.23;;;12.50;99.90;;;;;;5102763;27;20291;-60
2023/03/31 19:18:35;;;;;;;7.23;4.10;;;12.50;99.90;;;;;;5106557;28;20201;-61
2023/03/31 19:21:03;;;;;;;8.97;4.60;;;12.50;99.90;;;;;;5107007;28;20993;-60
2023/03/31 19:23:32;;;;;;;6.53;4.00;;;12.50;99.90;;;;;;5103355;27;20655;-61
2023/03/31 19:26:01;;;;;;;7.37;4.53;;;12.50;99.90;;;;;;5100080;28;20204;-59
2023/03/31 19:28:29;;;;;;;10.90;5.97;;;12.40;99.90;;;;;;5103452;28;20205;-61
2023/03/31 19:30:57;;;;;;;9.87;5.83;;;12.40;99.90;;;;;;5100415;28;20267;-60
2023/03/31 19:33:25;;;;;;;10.17;6.20;;;12.40;99.90;;;;;;5110419;27;20202;-60
2023/03/31 19:35:52;;;;;;;7.20;4.93;;;12.30;99.90;;;;;;5102417;27;20210;-61
2023/03/31 19:38:21;;;;;;;10.20;5.37;;;12.30;99.90;;;;;;5106592;27;20280;-60
2023/03/31 19:40:50;;;;;;;6.83;4.40;;;12.20;99.90;;;;;;5107880;27;20593;-60
2023/03/31 19:43:19;;;;;;;7.90;4.70;;;12.20;99.90;;;;;;5101119;27;20305;-61
2023/03/31 19:45:48;;;;;;;5.77;4.00;;;12.10;99.90;;;;;;5103441;27;20536;-61
2023/03/31 19:48:16;;;;;;;4.87;3.40;;;12.20;99.90;;;;;;5100727;28;20297;-60
2023/03/31 19:50:47;;;;;;;4.87;3.63;;;12.10;99.90;;;;;;5101078;28;20547;-60
2023/03/31 19:53:14;;;;;;;5.40;3.73;;;12.10;99.90;;;;;;5100688;28;20259;-61
2023/03/31 19:55:42;;;;;;;6.20;3.57;;;12.20;99.90;;;;;;5105015;28;20722;-62
2023/03/31 19:58:11;;;;;;;7.47;4.47;;;12.20;99.90;;;;;;5103301;28;20551;-60
2023/03/31 20:00:39;;;;;;;6.70;4.27;;;12.20;99.90;;;;;;5102541;28;20194;-61
2023/03/31 20:03:06;;;;;;;8.10;4.17;;;12.20;99.90;;;;;;5097010;27;20201;-60
2023/03/31 20:05:34;;;;;;;6.83;4.70;;;12.10;99.90;;;;;;5103717;28;20220;-60
2023/03/31 20:08:01;;;;;;;5.93;3.80;;;12.10;99.90;;;;;;5096708;28;20203;-60
2023/03/31 20:10:28;;;;;;;8.23;4.63;;;12.10;99.90;;;;;;5102178;28;20602;-60
2023/03/31 20:12:55;;;;;;;6.37;4.00;;;12.00;99.90;;;;;;5096157;27;20227;-61
2023/03/31 20:15:24;;;;;;;5.53;3.60;;;12.00;99.90;;;;;;5105661;28;20219;-60
2023/03/31 20:17:52;;;;;;;4.17;3.03;;;12.00;99.90;;;;;;5102353;27;20196;-60
2023/03/31 20:20:19;;;;;;;5.10;3.30;;;12.00;99.90;;;;;;5107025;28;20191;-60
2023/03/31 20:22:46;;;;;;;4.47;2.93;;;12.00;99.90;;;;;;5108053;28;20211;-60
2023/03/31 20:25:13;;;;;;;4.43;3.47;;;12.00;99.90;;;;;;5105748;28;20192;-61
2023/03/31 20:27:41;;;;;;;4.90;2.70;;;12.00;99.90;;;;;;5105049;27;20567;-60
2023/03/31 20:30:09;;;;;;;3.63;2.67;;;12.00;99.90;;;;;;5098186;28;20200;-60
2023/03/31 20:32:38;;;;;;;4.07;3.00;;;12.00;99.90;;;;;;5089200;28;20201;-60
2023/03/31 20:35:06;;;;;;;3.47;2.70;;;12.10;99.90;;;;;;5109078;27;20207;-60
2023/03/31 20:37:33;;;;;;;3.87;2.87;;;12.10;99.90;;;;;;5100604;27;20200;-60
2023/03/31 20:40:01;;;;;;;3.30;2.73;;;12.10;99.90;;;;;;5100469;28;20196;-60
2023/03/31 20:42:28;;;;;;;3.53;2.87;;;12.10;99.90;;;;;;5100859;28;20207;-61
2023/03/31 20:44:55;;;;;;;5.13;3.33;;;12.10;99.90;;;;;;5105448;27;20216;-60
2023/03/31 20:47:23;;;;;;;4.40;3.23;;;12.00;99.90;;;;;;5102138;27;20199;-60
2023/03/31 20:49:52;;;;;;;5.30;3.60;;;12.00;99.90;;;;;;5097492;28;20196;-60
2023/03/31 20:52:19;;;;;;;7.00;4.03;;;12.00;99.90;;;;;;5113022;27;20229;-60
2023/03/31 20:54:47;;;;;;;10.37;5.37;;;11.90;99.90;;;;;;5105921;28;20310;-60
2023/03/31 20:57:14;;;;;;;9.93;5.20;;;11.90;99.90;;;;;;5101808;28;20200;-60
2023/03/31 20:59:41;;;;;;;7.50;4.10;;;11.90;99.90;;;;;;5099506;28;20192;-60
2023/03/31 21:02:11;;;;;;;8.13;4.40;;;11.90;99.90;;;;;;5103400;28;20229;-61
2023/03/31 21:04:38;;;;;;;10.17;4.53;;;11.80;99.90;;;;;;5093441;28;20184;-60
2023/03/31 21:07:07;;;;;;;9.37;4.53;;;11.80;99.90;;;;;;5105647;28;20720;-60
2023/03/31 21:09:34;;;;;;;10.07;4.80;;;11.80;99.90;;;;;;5102655;28;20285;-60
2023/03/31 21:12:03;;;;;;;7.50;3.83;;;11.80;99.90;;;;;;5102959;27;20983;-60
2023/03/31 21:14:31;;;;;;;6.90;3.57;;;11.80;99.90;;;;;;5099444;28;20223;-60
2023/03/31 21:16:58;;;;;;;6.57;4.03;;;11.80;99.90;;;;;;5101037;28;20227;-61
2023/03/31 21:19:26;;;;;;;10.00;4.83;;;11.80;99.90;;;;;;5103986;28;20214;-60
2023/03/31 21:21:53;;;;;;;8.67;4.23;;;11.80;99.90;;;;;;5100109;28;20214;-60
2023/03/31 21:24:21;;;;;;;7.27;3.70;;;11.80;99.90;;;;;;5098654;28;20199;-60
2023/03/31 21:26:49;;;;;;;4.90;3.20;;;11.80;99.90;;;;;;5113648;28;20235;-60
2023/03/31 21:29:16;;;;;;;6.87;4.27;;;11.70;99.90;;;;;;5098743;28;21322;-60
2023/03/31 21:31:44;;;;;;;14.13;5.53;;;11.70;99.90;;;;;;5099779;28;20603;-60
2023/03/31 21:34:12;;;;;;;11.33;5.63;;;11.70;99.90;;;;;;5102533;28;20191;-60
2023/03/31 21:36:39;;;;;;;12.53;4.93;;;11.60;99.90;;;;;;5096497;28;20208;-60
2023/03/31 21:39:08;;;;;;;9.60;5.30;;;11.60;99.90;;;;;;5100076;28;20279;-60
2023/03/31 21:41:38;;;;;;;9.40;4.90;;;11.50;99.90;;;;;;5101865;28;20566;-61
2023/03/31 21:44:07;;;;;;;9.10;4.67;;;11.50;99.90;;;;;;5095583;28;20206;-60
2023/03/31 21:46:34;;;;;;;7.90;4.13;;;11.50;99.90;;;;;;5091767;28;20192;-60
2023/03/31 21:49:02;;;;;;;9.13;3.87;;;11.50;99.90;;;;;;5101612;28;20207;-61
2023/03/31 21:51:29;;;;;;;7.70;3.60;;;11.40;99.90;;;;;;5093330;28;20559;-61
2023/03/31 21:53:57;;;;;;;8.73;4.20;;;11.40;99.90;;;;;;5090042;28;20266;-60
2023/03/31 21:56:26;;;;;;;15.00;6.23;;;11.40;99.90;;;;;;5105842;28;20563;-61
2023/03/31 21:58:55;;;;;;;11.97;5.30;;;11.40;99.90;;;;;;5108696;28;20577;-61
2023/03/31 22:01:23;;;;;;;9.60;4.20;;;11.30;99.90;;;;;;5103740;28;20715;-61
2023/03/31 22:03:50;;;;;;;9.43;4.30;;;11.20;99.90;;;;;;5103574;28;20204;-61
2023/03/31 22:06:18;;;;;;;11.63;4.60;;;11.20;99.90;;;;;;5101711;28;20216;-61
2023/03/31 22:08:45;;;;;;;13.70;5.57;;;11.20;99.90;;;;;;5101139;28;20287;-60
2023/03/31 22:11:13;;;;;;;16.10;6.07;;;11.10;99.90;;;;;;5099842;28;20566;-61
2023/03/31 22:13:41;;;;;;;11.23;5.07;;;11.10;99.90;;;;;;5096552;28;20681;-61
2023/03/31 22:16:16;;;;;;;8.60;4.03;;;11.10;99.90;;;;;;5107123;28;20208;-61
2023/03/31 22:18:44;;;;;;;9.27;3.40;;;11.10;99.90;;;;;;5102957;28;20242;-60
2023/03/31 22:21:20;;;;;;;5.17;3.30;;;11.00;99.90;;;;;;5100786;28;20302;-60
2023/03/31 22:23:48;;;;;;;2.73;2.10;;;11.00;99.90;;;;;;5108367;28;20198;-60